Andrew J. Barberi — WYR3370 — position and weather

sailwx.info

Track history (hours):
 
Tides and Currents Weather Stations Pressure Air Temp Water Temp Dewpoint Dewpoint Depression Visibility Wind Speed Wind Dir Waves Ship Positions

Andrew J. Barberi

Owner: CITY OF NEW YORK, Brooklyn, NY. More information available from US FCC via Universal Licensing System and Coast Guard Vessel Documentation Center.

Last reported at 2014-Dec-21 21:33 UTC. Time now 2014-Dec-21 22:13 UTC.
Position N 40°42' W 074°01'.

Length 94 m; draft 4.3 m.

Type: Ship. MMSI: 367000150.

Date/timePositionNaut miles runAvg speedWind from/ knotsBaromVisibWave heightAir tempDewpointWater temp
2014-Dec-21 21:33N 40°42' W 074°01'4 3.5
2014-Dec-21 20:23N 40°39' W 074°04'0 0.2
2014-Dec-21 19:33N 40°39' W 074°04'4 4.2
2014-Dec-21 18:34N 40°42' W 074°01'4 4.3
2014-Dec-21 17:34N 40°39' W 074°04'0 0.4
2014-Dec-21 16:34N 40°39' W 074°04'0 0.4
2014-Dec-21 15:33N 40°39' W 074°04'0 0.0
2014-Dec-21 14:32N 40°39' W 074°04'0 0.0
2014-Dec-21 13:32N 40°39' W 074°04'0 0.0
2014-Dec-21 12:32N 40°39' W 074°04'0 0.0
2014-Dec-21 11:32N 40°39' W 074°04'0 0.0
2014-Dec-21 10:20N 40°39' W 074°04'0 0.0
2014-Dec-21 09:29N 40°39' W 074°04'0 0.0
2014-Dec-21 08:32N 40°39' W 074°04'0 0.0
2014-Dec-21 07:32N 40°39' W 074°04'0 0.0
2014-Dec-21 06:32N 40°39' W 074°04'0 0.0
2014-Dec-21 05:32N 40°39' W 074°04'0 0.0
2014-Dec-21 04:32N 40°39' W 074°04'0 0.0
2014-Dec-21 03:32N 40°39' W 074°04'0 0.1
2014-Dec-21 02:33N 40°39' W 074°04'4 4.2
2014-Dec-21 01:34N 40°42' W 074°01'4 3.6
2014-Dec-21 00:24N 40°39' W 074°04'0 0.2
2014-Dec-20 23:33N 40°39' W 074°04'0 0.1
2014-Dec-20 22:30N 40°39' W 074°04'0 0.0
2014-Dec-20 21:33N 40°39' W 074°04'0 0.0
2014-Dec-20 20:33N 40°39' W 074°04'0 0.2
2014-Dec-20 19:33N 40°39' W 074°04'4 4.1
2014-Dec-20 18:33N 40°42' W 074°01'4 3.7
2014-Dec-20 17:24N 40°39' W 074°04'0 0.4
2014-Dec-20 16:33N 40°39' W 074°04'0 0.4
2014-Dec-20 15:33N 40°39' W 074°04'0 0.0
2014-Dec-20 14:33N 40°39' W 074°04'0 0.0
2014-Dec-20 13:33N 40°39' W 074°04'0 0.0
2014-Dec-20 12:33N 40°39' W 074°04'0 0.0
2014-Dec-20 11:33N 40°39' W 074°04'0 0.0
2014-Dec-20 10:33N 40°39' W 074°04'0 0.0
2014-Dec-20 09:33N 40°39' W 074°04'0 0.0
2014-Dec-20 08:33N 40°39' W 074°04'0 0.0
2014-Dec-20 07:33N 40°39' W 074°04'0 0.0
2014-Dec-20 06:33N 40°39' W 074°04'0 0.0
2014-Dec-20 05:33N 40°39' W 074°04'0 0.0
2014-Dec-20 04:33N 40°39' W 074°04'0 0.0
2014-Dec-20 03:33N 40°39' W 074°04'0 0.0
2014-Dec-20 02:33N 40°39' W 074°04'0 0.2
2014-Dec-20 01:33N 40°39' W 074°04'4 3.9
2014-Dec-20 00:27N 40°42' W 074°01'0 0.0
2014-Dec-19 23:34N 40°42' W 074°01'0 0.1
2014-Dec-19 22:33N 40°42' W 074°01'2 1.9
2014-Dec-19 21:33N 40°41' W 074°03'2 2.3
2014-Dec-19 20:33N 40°39' W 074°04'0 0.1
2014-Dec-19 19:33N 40°39' W 074°04'0 0.1
2014-Dec-19 18:33N 40°39' W 074°04'0 0.2
2014-Dec-19 17:33N 40°39' W 074°04'0 0.1
2014-Dec-19 16:33N 40°39' W 074°04'0 0.3
2014-Dec-19 15:34N 40°39' W 074°04'0 0.3
2014-Dec-19 14:33N 40°39' W 074°04'4 3.6
2014-Dec-19 13:33N 40°42' W 074°01'0 0.2
2014-Dec-19 12:33N 40°41' W 074°02'1 0.7
2014-Dec-19 11:33N 40°42' W 074°01'4 4.1
2014-Dec-19 10:33N 40°39' W 074°04'0 0.0
2014-Dec-19 09:33N 40°39' W 074°04'0 0.0
2014-Dec-19 03:07N 40°39' W 074°04'0 0.2
2014-Dec-19 02:33N 40°39' W 074°04'4 4.3
2014-Dec-19 01:33N 40°42' W 074°01'4 3.8
2014-Dec-19 00:26N 40°39' W 074°04'0 0.3
2014-Dec-18 23:33N 40°39' W 074°04'0 0.0
2014-Dec-18 22:34N 40°39' W 074°04'4 4.0
2014-Dec-18 21:32N 40°42' W 074°01'0 0.0
2014-Dec-18 20:33N 40°42' W 074°01'4 3.7
2014-Dec-18 19:23N 40°39' W 074°04'0 0.3
2014-Dec-18 18:34N 40°39' W 074°04'0 0.3
2014-Dec-18 17:33N 40°39' W 074°04'0 0.0
2014-Dec-18 16:33N 40°39' W 074°04'0 0.1
2014-Dec-18 15:33N 40°39' W 074°04'0 0.2
2014-Dec-18 14:33N 40°39' W 074°04'3 3.3
2014-Dec-18 13:33N 40°41' W 074°02'0 0.1
2014-Dec-18 12:33N 40°41' W 074°02'1 0.8
2014-Dec-18 11:33N 40°42' W 074°01'4 4.5
2014-Dec-18 10:33N 40°38' W 074°04'0 0.3
2014-Dec-18 09:33N 40°39' W 074°04'0 0.0
2014-Dec-18 08:31N 40°39' W 074°04'0 0.0
2014-Dec-18 07:31N 40°39' W 074°04'0 0.0
2014-Dec-18 06:31N 40°39' W 074°04'0 0.0
2014-Dec-18 05:31N 40°39' W 074°04'0 0.0
2014-Dec-18 04:31N 40°39' W 074°04'0 0.0
2014-Dec-18 03:31N 40°39' W 074°04'0 0.1
2014-Dec-18 02:33N 40°39' W 074°04'4 4.3
2014-Dec-18 01:33N 40°42' W 074°01'4 4.3
2014-Dec-18 00:34N 40°39' W 074°04'0 0.2
2014-Dec-17 23:33N 40°39' W 074°04'0 0.0
2014-Dec-17 22:33N 40°39' W 074°04'4 4.2
2014-Dec-17 21:33N 40°42' W 074°01'0 0.0
2014-Dec-17 20:34N 40°42' W 074°01'4 3.8
2014-Dec-17 19:25N 40°39' W 074°04'0 0.3
2014-Dec-17 18:34N 40°39' W 074°04'0 0.3
2014-Dec-17 17:33N 40°39' W 074°04'0 0.0
2014-Dec-17 16:33N 40°39' W 074°04'0 0.0
2014-Dec-17 15:33N 40°39' W 074°04'0 0.3
2014-Dec-17 14:33N 40°39' W 074°04'3 3.1
2014-Dec-17 13:33N 40°41' W 074°02'0 0.3
2014-Dec-17 12:33N 40°42' W 074°02'1 0.7
2014-Dec-17 11:33N 40°42' W 074°01'4 4.2
2014-Dec-17 10:33N 40°39' W 074°04'0 0.0
2014-Dec-17 09:33N 40°39' W 074°04'0 0.0
2014-Dec-17 02:33N 40°39' W 074°04'4 4.3
2014-Dec-17 01:33N 40°42' W 074°01'4 4.3
2014-Dec-17 00:33N 40°39' W 074°04'0 0.0
2014-Dec-16 23:23N 40°39' W 074°04'0 0.2
2014-Dec-16 22:33N 40°39' W 074°04'4 4.2
2014-Dec-16 21:33N 40°42' W 074°01'0 0.0
2014-Dec-16 20:23N 40°42' W 074°01'4 4.3
2014-Dec-16 19:23N 40°39' W 074°04'0 0.4
2014-Dec-16 18:33N 40°39' W 074°04'4 4.0
2014-Dec-16 17:33N 40°42' W 074°01'0 0.0
2014-Dec-16 16:34N 40°42' W 074°01'0 0.1
2014-Dec-16 15:34N 40°42' W 074°01'4 4.3
2014-Dec-16 14:33N 40°39' W 074°04'3 2.6
2014-Dec-16 13:33N 40°41' W 074°02'1 0.9
2014-Dec-16 12:33N 40°41' W 074°02'1 0.8
2014-Dec-16 11:33N 40°42' W 074°01'4 4.3
2014-Dec-16 10:33N 40°39' W 074°04'0 0.0
2014-Dec-16 09:33N 40°39' W 074°04'0 0.0
2014-Dec-16 08:33N 40°39' W 074°04'0 0.0
2014-Dec-16 07:33N 40°39' W 074°04'0 0.0
2014-Dec-16 06:30N 40°39' W 074°04'0 0.0
2014-Dec-16 05:33N 40°39' W 074°04'0 0.0
2014-Dec-16 04:24N 40°39' W 074°04'0 0.0
2014-Dec-16 03:30N 40°39' W 074°04'0 0.0
2014-Dec-16 02:33N 40°39' W 074°04'4 4.3
2014-Dec-16 01:33N 40°42' W 074°01'3 3.0
2014-Dec-16 00:26N 40°39' W 074°03'1 0.9
2014-Dec-15 23:33N 40°39' W 074°04'0 0.1
2014-Dec-15 22:34N 40°39' W 074°04'4 3.9
2014-Dec-15 21:31N 40°42' W 074°01'0 0.0
2014-Dec-15 20:33N 40°42' W 074°01'4 4.3
2014-Dec-15 19:33N 40°39' W 074°04'0 0.2
2014-Dec-15 18:33N 40°39' W 074°04'4 4.1
2014-Dec-15 17:33N 40°42' W 074°01'0 0.0
2014-Dec-15 16:33N 40°42' W 074°01'4 4.2
2014-Dec-15 15:33N 40°39' W 074°04'0 0.1
2014-Dec-15 14:33N 40°39' W 074°04'3 2.7
2014-Dec-15 13:33N 40°41' W 074°02'1 0.6
2014-Dec-15 12:33N 40°41' W 074°02'1 0.9
2014-Dec-15 11:33N 40°42' W 074°01'4 4.3
2014-Dec-15 10:34N 40°39' W 074°04'0 0.0
2014-Dec-15 09:31N 40°39' W 074°04'0 0.0
2014-Dec-15 08:31N 40°39' W 074°04'0 0.0
2014-Dec-15 07:31N 40°39' W 074°04'0 0.0
2014-Dec-15 06:31N 40°39' W 074°04'0 0.0
2014-Dec-15 05:31N 40°39' W 074°04'0 0.0
2014-Dec-15 04:31N 40°39' W 074°04'0 0.0
2014-Dec-15 03:31N 40°39' W 074°04'0 0.0
2014-Dec-15 02:31N 40°39' W 074°04'0 0.0
2014-Dec-15 01:31N 40°39' W 074°04'0 0.0
2014-Dec-15 00:33N 40°39' W 074°04'0 0.0
2014-Dec-14 23:33N 40°39' W 074°04'0 0.1
2014-Dec-14 22:33N 40°39' W 074°04'4 4.1
2014-Dec-14 21:33N 40°42' W 074°01'4 3.6
2014-Dec-14 20:23N 40°39' W 074°04'0 0.2
2014-Dec-14 19:33N 40°39' W 074°04'4 4.0
2014-Dec-14 18:33N 40°42' W 074°01'4 4.0
2014-Dec-14 17:33N 40°39' W 074°04'0 0.1
2014-Dec-14 16:33N 40°39' W 074°04'0 0.2
2014-Dec-14 15:33N 40°39' W 074°04'0 0.0
2014-Dec-14 14:32N 40°39' W 074°04'0 0.0
2014-Dec-14 13:32N 40°39' W 074°04'0 0.0
2014-Dec-14 12:32N 40°39' W 074°04'0 0.0
2014-Dec-14 11:32N 40°39' W 074°04'0 0.0
2014-Dec-14 10:23N 40°39' W 074°04'0 0.0
2014-Dec-14 09:32N 40°39' W 074°04'0 0.0
2014-Dec-14 08:32N 40°39' W 074°04'0 0.0
2014-Dec-14 07:32N 40°39' W 074°04'0 0.0
2014-Dec-14 06:32N 40°39' W 074°04'0 0.0
2014-Dec-14 05:32N 40°39' W 074°04'0 0.0
2014-Dec-14 04:29N 40°39' W 074°04'0 0.0
2014-Dec-14 03:32N 40°39' W 074°04'0 0.0
2014-Dec-14 02:32N 40°39' W 074°04'0 0.0
2014-Dec-14 01:32N 40°39' W 074°04'0 0.1
2014-Dec-14 00:25N 40°39' W 074°04'0 0.0
2014-Dec-13 23:33N 40°39' W 074°04'0 0.0
2014-Dec-13 22:33N 40°39' W 074°04'0 0.0
2014-Dec-13 21:33N 40°39' W 074°04'0 0.0
2014-Dec-13 20:33N 40°39' W 074°04'0 0.1
2014-Dec-13 19:33N 40°39' W 074°04'4 4.0
2014-Dec-13 18:33N 40°42' W 074°01'4 4.1
2014-Dec-13 17:33N 40°39' W 074°04'0 0.0
2014-Dec-13 16:33N 40°39' W 074°04'0 0.1
2014-Dec-13 15:33N 40°39' W 074°04'0 0.0
2014-Dec-13 14:33N 40°39' W 074°04'0 0.0
2014-Dec-13 13:33N 40°39' W 074°04'0 0.0
2014-Dec-13 12:33N 40°39' W 074°04'0 0.0
2014-Dec-13 11:33N 40°39' W 074°04'0 0.0
2014-Dec-13 10:33N 40°39' W 074°04'0 0.0
2014-Dec-13 09:33N 40°39' W 074°04'0 0.0
2014-Dec-13 08:33N 40°39' W 074°04'0 0.0
2014-Dec-13 07:33N 40°39' W 074°04'0 0.0
2014-Dec-13 06:33N 40°39' W 074°04'0 0.0
2014-Dec-13 05:33N 40°39' W 074°04'0 0.0
2014-Dec-13 04:33N 40°39' W 074°04'0 0.0
2014-Dec-13 03:33N 40°39' W 074°04'0 0.0
2014-Dec-13 02:33N 40°39' W 074°04'4 2.1
2014-Dec-13 00:27N 40°42' W 074°01'0 0.0
2014-Dec-12 23:26N 40°42' W 074°01'0 0.1
2014-Dec-12 22:34N 40°42' W 074°01'2 1.7
2014-Dec-12 21:33N 40°41' W 074°02'3 1.2
2014-Dec-12 19:25N 40°39' W 074°04'0 0.1
2014-Dec-12 18:34N 40°39' W 074°04'0 0.0
2014-Dec-12 16:24N 40°39' W 074°04'0 0.0
2014-Dec-12 15:33N 40°39' W 074°04'0 0.2
2014-Dec-12 14:33N 40°39' W 074°04'3 3.4
2014-Dec-12 13:33N 40°42' W 074°02'0 0.1
2014-Dec-12 12:33N 40°41' W 074°02'1 0.6
2014-Dec-12 11:34N 40°42' W 074°01'4 4.2
2014-Dec-12 10:33N 40°39' W 074°04'0 0.0
2014-Dec-12 09:33N 40°39' W 074°04'0 0.0
2014-Dec-12 08:32N 40°39' W 074°04'0 0.0
2014-Dec-12 07:32N 40°39' W 074°04'0 0.0
2014-Dec-12 06:32N 40°39' W 074°04'0 0.0
2014-Dec-12 05:32N 40°39' W 074°04'0 0.0
2014-Dec-12 04:32N 40°39' W 074°04'0 0.0
2014-Dec-12 03:32N 40°39' W 074°04'0 0.1
2014-Dec-12 02:34N 40°39' W 074°04'4 4.2
2014-Dec-12 01:34N 40°42' W 074°01'4 3.6
2014-Dec-12 00:24N 40°39' W 074°04'0 0.0
2014-Dec-11 23:33N 40°39' W 074°04'0 0.2
2014-Dec-11 22:33N 40°39' W 074°04'4 4.0
2014-Dec-11 21:33N 40°42' W 074°01'  
Track history (hours):
 
Tides and Currents Weather Stations Pressure Air Temp Water Temp Dewpoint Dewpoint Depression Visibility Wind Speed Wind Dir Waves Ship Positions

Andrew J. Barberi

Owner: CITY OF NEW YORK, Brooklyn, NY. More information available from US FCC via Universal Licensing System and Coast Guard Vessel Documentation Center.

Last reported at 2014-Dec-21 21:33 UTC. Time now 2014-Dec-21 22:13 UTC.
Position N 40°42' W 074°01'.

Length 94 m; draft 4.3 m.

Type: Ship. MMSI: 367000150.

Date/timePositionNaut miles runAvg speedWind from/ knotsBaromVisibWave heightAir tempDewpointWater temp
2014-Dec-21 21:33N 40°42' W 074°01'4 3.5
2014-Dec-21 20:23N 40°39' W 074°04'0 0.2
2014-Dec-21 19:33N 40°39' W 074°04'4 4.2
2014-Dec-21 18:34N 40°42' W 074°01'4 4.3
2014-Dec-21 17:34N 40°39' W 074°04'0 0.4
2014-Dec-21 16:34N 40°39' W 074°04'0 0.4
2014-Dec-21 15:33N 40°39' W 074°04'0 0.0
2014-Dec-21 14:32N 40°39' W 074°04'0 0.0
2014-Dec-21 13:32N 40°39' W 074°04'0 0.0
2014-Dec-21 12:32N 40°39' W 074°04'0 0.0
2014-Dec-21 11:32N 40°39' W 074°04'0 0.0
2014-Dec-21 10:20N 40°39' W 074°04'0 0.0
2014-Dec-21 09:29N 40°39' W 074°04'0 0.0
2014-Dec-21 08:32N 40°39' W 074°04'0 0.0
2014-Dec-21 07:32N 40°39' W 074°04'0 0.0
2014-Dec-21 06:32N 40°39' W 074°04'0 0.0
2014-Dec-21 05:32N 40°39' W 074°04'0 0.0
2014-Dec-21 04:32N 40°39' W 074°04'0 0.0
2014-Dec-21 03:32N 40°39' W 074°04'0 0.1
2014-Dec-21 02:33N 40°39' W 074°04'4 4.2
2014-Dec-21 01:34N 40°42' W 074°01'4 3.6
2014-Dec-21 00:24N 40°39' W 074°04'0 0.2
2014-Dec-20 23:33N 40°39' W 074°04'0 0.1
2014-Dec-20 22:30N 40°39' W 074°04'0 0.0
2014-Dec-20 21:33N 40°39' W 074°04'0 0.0
2014-Dec-20 20:33N 40°39' W 074°04'0 0.2
2014-Dec-20 19:33N 40°39' W 074°04'4 4.1
2014-Dec-20 18:33N 40°42' W 074°01'4 3.7
2014-Dec-20 17:24N 40°39' W 074°04'0 0.4
2014-Dec-20 16:33N 40°39' W 074°04'0 0.4
2014-Dec-20 15:33N 40°39' W 074°04'0 0.0
2014-Dec-20 14:33N 40°39' W 074°04'0 0.0
2014-Dec-20 13:33N 40°39' W 074°04'0 0.0
2014-Dec-20 12:33N 40°39' W 074°04'0 0.0
2014-Dec-20 11:33N 40°39' W 074°04'0 0.0
2014-Dec-20 10:33N 40°39' W 074°04'0 0.0
2014-Dec-20 09:33N 40°39' W 074°04'0 0.0
2014-Dec-20 08:33N 40°39' W 074°04'0 0.0
2014-Dec-20 07:33N 40°39' W 074°04'0 0.0
2014-Dec-20 06:33N 40°39' W 074°04'0 0.0
2014-Dec-20 05:33N 40°39' W 074°04'0 0.0
2014-Dec-20 04:33N 40°39' W 074°04'0 0.0
2014-Dec-20 03:33N 40°39' W 074°04'0 0.0
2014-Dec-20 02:33N 40°39' W 074°04'0 0.2
2014-Dec-20 01:33N 40°39' W 074°04'4 3.9
2014-Dec-20 00:27N 40°42' W 074°01'0 0.0
2014-Dec-19 23:34N 40°42' W 074°01'0 0.1
2014-Dec-19 22:33N 40°42' W 074°01'2 1.9
2014-Dec-19 21:33N 40°41' W 074°03'2 2.3
2014-Dec-19 20:33N 40°39' W 074°04'0 0.1
2014-Dec-19 19:33N 40°39' W 074°04'0 0.1
2014-Dec-19 18:33N 40°39' W 074°04'0 0.2
2014-Dec-19 17:33N 40°39' W 074°04'0 0.1
2014-Dec-19 16:33N 40°39' W 074°04'0 0.3
2014-Dec-19 15:34N 40°39' W 074°04'0 0.3
2014-Dec-19 14:33N 40°39' W 074°04'4 3.6
2014-Dec-19 13:33N 40°42' W 074°01'0 0.2
2014-Dec-19 12:33N 40°41' W 074°02'1 0.7
2014-Dec-19 11:33N 40°42' W 074°01'4 4.1
2014-Dec-19 10:33N 40°39' W 074°04'0 0.0
2014-Dec-19 09:33N 40°39' W 074°04'0 0.0
2014-Dec-19 03:07N 40°39' W 074°04'0 0.2
2014-Dec-19 02:33N 40°39' W 074°04'4 4.3
2014-Dec-19 01:33N 40°42' W 074°01'4 3.8
2014-Dec-19 00:26N 40°39' W 074°04'0 0.3
2014-Dec-18 23:33N 40°39' W 074°04'0 0.0
2014-Dec-18 22:34N 40°39' W 074°04'4 4.0
2014-Dec-18 21:32N 40°42' W 074°01'0 0.0
2014-Dec-18 20:33N 40°42' W 074°01'4 3.7
2014-Dec-18 19:23N 40°39' W 074°04'0 0.3
2014-Dec-18 18:34N 40°39' W 074°04'0 0.3
2014-Dec-18 17:33N 40°39' W 074°04'0 0.0
2014-Dec-18 16:33N 40°39' W 074°04'0 0.1
2014-Dec-18 15:33N 40°39' W 074°04'0 0.2
2014-Dec-18 14:33N 40°39' W 074°04'3 3.3
2014-Dec-18 13:33N 40°41' W 074°02'0 0.1
2014-Dec-18 12:33N 40°41' W 074°02'1 0.8
2014-Dec-18 11:33N 40°42' W 074°01'4 4.5
2014-Dec-18 10:33N 40°38' W 074°04'0 0.3
2014-Dec-18 09:33N 40°39' W 074°04'0 0.0
2014-Dec-18 08:31N 40°39' W 074°04'0 0.0
2014-Dec-18 07:31N 40°39' W 074°04'0 0.0
2014-Dec-18 06:31N 40°39' W 074°04'0 0.0
2014-Dec-18 05:31N 40°39' W 074°04'0 0.0
2014-Dec-18 04:31N 40°39' W 074°04'0 0.0
2014-Dec-18 03:31N 40°39' W 074°04'0 0.1
2014-Dec-18 02:33N 40°39' W 074°04'4 4.3
2014-Dec-18 01:33N 40°42' W 074°01'4 4.3
2014-Dec-18 00:34N 40°39' W 074°04'0 0.2
2014-Dec-17 23:33N 40°39' W 074°04'0 0.0
2014-Dec-17 22:33N 40°39' W 074°04'4 4.2
2014-Dec-17 21:33N 40°42' W 074°01'0 0.0
2014-Dec-17 20:34N 40°42' W 074°01'4 3.8
2014-Dec-17 19:25N 40°39' W 074°04'0 0.3
2014-Dec-17 18:34N 40°39' W 074°04'0 0.3
2014-Dec-17 17:33N 40°39' W 074°04'0 0.0
2014-Dec-17 16:33N 40°39' W 074°04'0 0.0
2014-Dec-17 15:33N 40°39' W 074°04'0 0.3
2014-Dec-17 14:33N 40°39' W 074°04'3 3.1
2014-Dec-17 13:33N 40°41' W 074°02'0 0.3
2014-Dec-17 12:33N 40°42' W 074°02'1 0.7
2014-Dec-17 11:33N 40°42' W 074°01'4 4.2
2014-Dec-17 10:33N 40°39' W 074°04'0 0.0
2014-Dec-17 09:33N 40°39' W 074°04'0 0.0
2014-Dec-17 02:33N 40°39' W 074°04'4 4.3
2014-Dec-17 01:33N 40°42' W 074°01'4 4.3
2014-Dec-17 00:33N 40°39' W 074°04'0 0.0
2014-Dec-16 23:23N 40°39' W 074°04'0 0.2
2014-Dec-16 22:33N 40°39' W 074°04'4 4.2
2014-Dec-16 21:33N 40°42' W 074°01'0 0.0
2014-Dec-16 20:23N 40°42' W 074°01'4 4.3
2014-Dec-16 19:23N 40°39' W 074°04'0 0.4
2014-Dec-16 18:33N 40°39' W 074°04'4 4.0
2014-Dec-16 17:33N 40°42' W 074°01'0 0.0
2014-Dec-16 16:34N 40°42' W 074°01'0 0.1
2014-Dec-16 15:34N 40°42' W 074°01'4 4.3
2014-Dec-16 14:33N 40°39' W 074°04'3 2.6
2014-Dec-16 13:33N 40°41' W 074°02'1 0.9
2014-Dec-16 12:33N 40°41' W 074°02'1 0.8
2014-Dec-16 11:33N 40°42' W 074°01'4 4.3
2014-Dec-16 10:33N 40°39' W 074°04'0 0.0
2014-Dec-16 09:33N 40°39' W 074°04'0 0.0
2014-Dec-16 08:33N 40°39' W 074°04'0 0.0
2014-Dec-16 07:33N 40°39' W 074°04'0 0.0
2014-Dec-16 06:30N 40°39' W 074°04'0 0.0
2014-Dec-16 05:33N 40°39' W 074°04'0 0.0
2014-Dec-16 04:24N 40°39' W 074°04'0 0.0
2014-Dec-16 03:30N 40°39' W 074°04'0 0.0
2014-Dec-16 02:33N 40°39' W 074°04'4 4.3
2014-Dec-16 01:33N 40°42' W 074°01'3 3.0
2014-Dec-16 00:26N 40°39' W 074°03'1 0.9
2014-Dec-15 23:33N 40°39' W 074°04'0 0.1
2014-Dec-15 22:34N 40°39' W 074°04'4 3.9
2014-Dec-15 21:31N 40°42' W 074°01'0 0.0
2014-Dec-15 20:33N 40°42' W 074°01'4 4.3
2014-Dec-15 19:33N 40°39' W 074°04'0 0.2
2014-Dec-15 18:33N 40°39' W 074°04'4 4.1
2014-Dec-15 17:33N 40°42' W 074°01'0 0.0
2014-Dec-15 16:33N 40°42' W 074°01'4 4.2
2014-Dec-15 15:33N 40°39' W 074°04'0 0.1
2014-Dec-15 14:33N 40°39' W 074°04'3 2.7
2014-Dec-15 13:33N 40°41' W 074°02'1 0.6
2014-Dec-15 12:33N 40°41' W 074°02'1 0.9
2014-Dec-15 11:33N 40°42' W 074°01'4 4.3
2014-Dec-15 10:34N 40°39' W 074°04'0 0.0
2014-Dec-15 09:31N 40°39' W 074°04'0 0.0
2014-Dec-15 08:31N 40°39' W 074°04'0 0.0
2014-Dec-15 07:31N 40°39' W 074°04'0 0.0
2014-Dec-15 06:31N 40°39' W 074°04'0 0.0
2014-Dec-15 05:31N 40°39' W 074°04'0 0.0
2014-Dec-15 04:31N 40°39' W 074°04'0 0.0
2014-Dec-15 03:31N 40°39' W 074°04'0 0.0
2014-Dec-15 02:31N 40°39' W 074°04'0 0.0
2014-Dec-15 01:31N 40°39' W 074°04'0 0.0
2014-Dec-15 00:33N 40°39' W 074°04'0 0.0
2014-Dec-14 23:33N 40°39' W 074°04'0 0.1
2014-Dec-14 22:33N 40°39' W 074°04'4 4.1
2014-Dec-14 21:33N 40°42' W 074°01'4 3.6
2014-Dec-14 20:23N 40°39' W 074°04'0 0.2
2014-Dec-14 19:33N 40°39' W 074°04'4 4.0
2014-Dec-14 18:33N 40°42' W 074°01'4 4.0
2014-Dec-14 17:33N 40°39' W 074°04'0 0.1
2014-Dec-14 16:33N 40°39' W 074°04'0 0.2
2014-Dec-14 15:33N 40°39' W 074°04'0 0.0
2014-Dec-14 14:32N 40°39' W 074°04'0 0.0
2014-Dec-14 13:32N 40°39' W 074°04'0 0.0
2014-Dec-14 12:32N 40°39' W 074°04'0 0.0
2014-Dec-14 11:32N 40°39' W 074°04'0 0.0
2014-Dec-14 10:23N 40°39' W 074°04'0 0.0
2014-Dec-14 09:32N 40°39' W 074°04'0 0.0
2014-Dec-14 08:32N 40°39' W 074°04'0 0.0
2014-Dec-14 07:32N 40°39' W 074°04'0 0.0
2014-Dec-14 06:32N 40°39' W 074°04'0 0.0
2014-Dec-14 05:32N 40°39' W 074°04'0 0.0
2014-Dec-14 04:29N 40°39' W 074°04'0 0.0
2014-Dec-14 03:32N 40°39' W 074°04'0 0.0
2014-Dec-14 02:32N 40°39' W 074°04'0 0.0
2014-Dec-14 01:32N 40°39' W 074°04'0 0.1
2014-Dec-14 00:25N 40°39' W 074°04'0 0.0
2014-Dec-13 23:33N 40°39' W 074°04'0 0.0
2014-Dec-13 22:33N 40°39' W 074°04'0 0.0
2014-Dec-13 21:33N 40°39' W 074°04'0 0.0
2014-Dec-13 20:33N 40°39' W 074°04'0 0.1
2014-Dec-13 19:33N 40°39' W 074°04'4 4.0
2014-Dec-13 18:33N 40°42' W 074°01'4 4.1
2014-Dec-13 17:33N 40°39' W 074°04'0 0.0
2014-Dec-13 16:33N 40°39' W 074°04'0 0.1
2014-Dec-13 15:33N 40°39' W 074°04'0 0.0
2014-Dec-13 14:33N 40°39' W 074°04'0 0.0
2014-Dec-13 13:33N 40°39' W 074°04'0 0.0
2014-Dec-13 12:33N 40°39' W 074°04'0 0.0
2014-Dec-13 11:33N 40°39' W 074°04'0 0.0
2014-Dec-13 10:33N 40°39' W 074°04'0 0.0
2014-Dec-13 09:33N 40°39' W 074°04'0 0.0
2014-Dec-13 08:33N 40°39' W 074°04'0 0.0
2014-Dec-13 07:33N 40°39' W 074°04'0 0.0
2014-Dec-13 06:33N 40°39' W 074°04'0 0.0
2014-Dec-13 05:33N 40°39' W 074°04'0 0.0
2014-Dec-13 04:33N 40°39' W 074°04'0 0.0
2014-Dec-13 03:33N 40°39' W 074°04'0 0.0
2014-Dec-13 02:33N 40°39' W 074°04'4 2.1
2014-Dec-13 00:27N 40°42' W 074°01'0 0.0
2014-Dec-12 23:26N 40°42' W 074°01'0 0.1
2014-Dec-12 22:34N 40°42' W 074°01'2 1.7
2014-Dec-12 21:33N 40°41' W 074°02'3 1.2
2014-Dec-12 19:25N 40°39' W 074°04'0 0.1
2014-Dec-12 18:34N 40°39' W 074°04'0 0.0
2014-Dec-12 16:24N 40°39' W 074°04'0 0.0
2014-Dec-12 15:33N 40°39' W 074°04'0 0.2
2014-Dec-12 14:33N 40°39' W 074°04'3 3.4
2014-Dec-12 13:33N 40°42' W 074°02'0 0.1
2014-Dec-12 12:33N 40°41' W 074°02'1 0.6
2014-Dec-12 11:34N 40°42' W 074°01'4 4.2
2014-Dec-12 10:33N 40°39' W 074°04'0 0.0
2014-Dec-12 09:33N 40°39' W 074°04'0 0.0
2014-Dec-12 08:32N 40°39' W 074°04'0 0.0
2014-Dec-12 07:32N 40°39' W 074°04'0 0.0
2014-Dec-12 06:32N 40°39' W 074°04'0 0.0
2014-Dec-12 05:32N 40°39' W 074°04'0 0.0
2014-Dec-12 04:32N 40°39' W 074°04'0 0.0
2014-Dec-12 03:32N 40°39' W 074°04'0 0.1
2014-Dec-12 02:34N 40°39' W 074°04'4 4.2
2014-Dec-12 01:34N 40°42' W 074°01'4 3.6
2014-Dec-12 00:24N 40°39' W 074°04'0 0.0
2014-Dec-11 23:33N 40°39' W 074°04'0 0.2
2014-Dec-11 22:33N 40°39' W 074°04'4 4.0
2014-Dec-11 21:33N 40°42' W 074°01'  

Dump ship's entire track history